createdAt,value
2023-03-22T00:01:28.605Z,56.87
2023-03-22T00:03:56.529Z,57.44
2023-03-22T00:06:24.981Z,57.68
2023-03-22T00:08:54.165Z,57.83
2023-03-22T00:11:24.141Z,56.88
2023-03-22T00:13:54.733Z,57.05
2023-03-22T00:16:23.408Z,57.02
2023-03-22T00:18:51.373Z,56.67
2023-03-22T00:21:19.896Z,57.35
2023-03-22T00:23:47.789Z,57.27
2023-03-22T00:26:16.174Z,57.21
2023-03-22T00:28:44.298Z,57.97
2023-03-22T00:31:13.546Z,57.24
2023-03-22T00:33:42.059Z,58.08
2023-03-22T00:36:13.041Z,58.45
2023-03-22T00:38:43.653Z,58.55
2023-03-22T00:41:14.189Z,59.14
2023-03-22T00:43:42.684Z,59.21
2023-03-22T00:46:13.498Z,59.72
2023-03-22T00:48:42.044Z,60.27
2023-03-22T00:51:10.867Z,60.98
2023-03-22T00:53:42.436Z,60.71
2023-03-22T00:56:14.016Z,60.78
2023-03-22T00:59:05.522Z,60.93
2023-03-22T01:01:34.916Z,60.00
2023-03-22T01:04:03.525Z,59.91
2023-03-22T01:06:32.122Z,60.30
2023-03-22T01:09:00.250Z,61.01
2023-03-22T01:11:29.063Z,62.14
2023-03-22T01:13:57.197Z,62.77
2023-03-22T01:16:25.636Z,62.88
2023-03-22T01:18:54.892Z,63.76
2023-03-22T01:21:23.063Z,62.74
2023-03-22T01:23:51.919Z,63.10
2023-03-22T01:26:19.916Z,62.85
2023-03-22T01:28:47.775Z,62.38
2023-03-22T01:31:15.709Z,62.66
2023-03-22T01:33:43.776Z,61.91
2023-03-22T01:36:13.359Z,61.71
2023-03-22T01:38:41.242Z,61.71
2023-03-22T01:41:09.378Z,60.87
2023-03-22T01:43:41.266Z,60.68
2023-03-22T01:46:09.527Z,61.19
2023-03-22T01:48:41.962Z,60.73
2023-03-22T01:51:13.079Z,59.76
2023-03-22T01:54:06.430Z,59.90
2023-03-22T01:56:39.860Z,60.23
2023-03-22T01:59:13.520Z,60.64
2023-03-22T02:02:02.826Z,60.69
2023-03-22T02:04:35.082Z,60.71
2023-03-22T02:07:09.896Z,60.37
2023-03-22T02:09:41.435Z,60.00
2023-03-22T02:12:25.975Z,60.00
2023-03-22T02:15:09.711Z,60.54
2023-03-22T02:18:22.355Z,59.89
2023-03-22T02:21:27.462Z,60.64
2023-03-22T02:24:30.512Z,59.54
2023-03-22T02:27:23.527Z,60.07
2023-03-22T02:30:18.719Z,60.38
2023-03-22T02:33:05.948Z,59.36
2023-03-22T02:36:25.637Z,59.78
2023-03-22T02:39:09.037Z,60.37
2023-03-22T02:41:53.163Z,61.72
2023-03-22T02:44:28.870Z,61.93
2023-03-22T02:47:03.131Z,61.80
2023-03-22T02:49:36.661Z,61.66
2023-03-22T02:52:17.174Z,61.07
2023-03-22T02:54:51.535Z,60.68
2023-03-22T02:57:30.123Z,60.64
2023-03-22T03:00:01.035Z,60.19
2023-03-22T03:02:31.986Z,60.51
2023-03-22T03:05:00.849Z,61.09
2023-03-22T03:07:31.668Z,60.89
2023-03-22T03:10:01.762Z,61.07
2023-03-22T03:12:30.329Z,60.86
2023-03-22T03:14:58.529Z,60.29
2023-03-22T03:17:39.846Z,60.77
2023-03-22T03:20:21.980Z,60.54
2023-03-22T03:23:00.944Z,60.36
2023-03-22T03:25:43.235Z,60.25
2023-03-22T03:28:22.871Z,61.14
2023-03-22T03:31:00.415Z,60.83
2023-03-22T03:33:29.270Z,60.80
2023-03-22T03:36:02.076Z,60.62
2023-03-22T03:38:32.731Z,60.47
2023-03-22T03:41:04.767Z,60.88
2023-03-22T03:43:34.536Z,60.87
2023-03-22T03:46:02.872Z,60.59
2023-03-22T03:48:34.079Z,60.53
2023-03-22T03:51:03.355Z,60.27
2023-03-22T03:53:31.996Z,61.47
2023-03-22T03:55:59.992Z,60.26
2023-03-22T03:58:36.020Z,61.41
2023-03-22T04:01:04.646Z,60.57
2023-03-22T04:03:36.360Z,60.47
2023-03-22T04:06:04.862Z,60.97
2023-03-22T04:08:37.537Z,61.00
2023-03-22T04:11:06.516Z,61.25
2023-03-22T04:13:36.343Z,61.74
2023-03-22T04:16:11.090Z,61.27
2023-03-22T04:18:39.430Z,61.20
2023-03-22T04:21:12.165Z,61.13
2023-03-22T04:23:55.930Z,62.00
2023-03-22T04:26:26.601Z,61.50
2023-03-22T04:29:16.116Z,61.67
2023-03-22T04:31:49.027Z,61.56
2023-03-22T04:34:32.622Z,61.63
2023-03-22T04:37:03.459Z,61.48
2023-03-22T04:39:37.444Z,61.42
2023-03-22T04:42:31.402Z,61.54
2023-03-22T04:45:14.672Z,61.52
2023-03-22T04:47:46.058Z,61.19
2023-03-22T04:50:14.115Z,61.90
2023-03-22T04:52:49.933Z,61.79
2023-03-22T04:55:21.526Z,61.51
2023-03-22T04:57:50.027Z,61.88
2023-03-22T05:00:21.753Z,61.14
2023-03-22T05:02:50.149Z,61.19
2023-03-22T05:05:33.911Z,61.46
2023-03-22T05:08:04.472Z,61.49
2023-03-22T05:10:32.372Z,61.54
2023-03-22T05:13:00.305Z,61.41
2023-03-22T05:15:33.813Z,61.52
2023-03-22T05:18:04.520Z,60.69
2023-03-22T05:20:32.599Z,61.02
2023-03-22T05:23:13.400Z,61.66
2023-03-22T05:25:45.217Z,61.30
2023-03-22T05:28:16.790Z,61.84
2023-03-22T05:30:51.514Z,61.55
2023-03-22T05:33:36.157Z,61.05
2023-03-22T05:36:05.376Z,61.28
2023-03-22T05:38:39.369Z,61.29
2023-03-22T05:41:08.507Z,62.14
2023-03-22T05:43:37.548Z,61.71
2023-03-22T05:46:08.363Z,61.49
2023-03-22T05:48:56.528Z,61.38
2023-03-22T05:51:25.914Z,62.09
2023-03-22T05:53:54.933Z,62.96
2023-03-22T05:56:27.125Z,63.01
2023-03-22T05:59:03.845Z,64.38
2023-03-22T06:01:34.186Z,64.68
2023-03-22T06:04:14.898Z,65.08
2023-03-22T06:07:05.760Z,65.65
2023-03-22T06:09:56.802Z,65.69
2023-03-22T06:12:30.108Z,65.91
2023-03-22T06:15:05.283Z,66.44
2023-03-22T06:17:57.206Z,66.58
2023-03-22T06:20:28.903Z,66.79
2023-03-22T06:23:02.142Z,66.55
2023-03-22T06:25:30.057Z,67.64
2023-03-22T06:27:58.060Z,67.01
2023-03-22T06:30:26.477Z,67.17
2023-03-22T06:33:14.557Z,66.73
2023-03-22T06:35:46.182Z,67.17
2023-03-22T06:38:20.298Z,66.09
2023-03-22T06:40:48.826Z,65.46
2023-03-22T06:43:16.826Z,64.63
2023-03-22T06:45:48.511Z,64.17
2023-03-22T06:48:21.846Z,64.60
2023-03-22T06:50:59.526Z,63.29
2023-03-22T06:53:32.256Z,63.29
2023-03-22T06:56:00.621Z,63.12
2023-03-22T06:58:29.407Z,63.58
2023-03-22T07:00:58.506Z,62.87
2023-03-22T07:03:29.343Z,62.19
2023-03-22T07:06:03.530Z,62.20
2023-03-22T07:08:34.184Z,62.54
2023-03-22T07:11:02.627Z,62.12
2023-03-22T07:13:30.702Z,62.30
2023-03-22T07:16:04.087Z,62.58
2023-03-22T07:18:40.816Z,61.82
2023-03-22T07:21:09.236Z,62.29
2023-03-22T07:23:40.215Z,61.49
2023-03-22T07:26:13.388Z,61.84
2023-03-22T07:28:46.163Z,61.92
2023-03-22T07:31:16.496Z,61.20
2023-03-22T07:34:01.439Z,60.90
2023-03-22T07:36:33.720Z,61.09
2023-03-22T07:39:02.700Z,61.36
2023-03-22T07:41:35.080Z,61.23
2023-03-22T07:44:29.022Z,61.00
2023-03-22T07:47:22.092Z,61.64
2023-03-22T07:50:25.920Z,60.97
2023-03-22T07:52:57.301Z,61.24
2023-03-22T07:55:25.235Z,60.42
2023-03-22T07:57:53.745Z,60.15
2023-03-22T08:00:22.558Z,60.81
2023-03-22T08:03:02.243Z,60.77
2023-03-22T08:05:51.913Z,60.54
2023-03-22T08:08:21.012Z,60.71
2023-03-22T08:10:52.297Z,60.55
2023-03-22T08:13:20.410Z,60.77
2023-03-22T08:15:48.226Z,60.81
2023-03-22T08:18:16.428Z,60.46
2023-03-22T08:20:46.306Z,59.68
2023-03-22T08:23:31.635Z,59.95
2023-03-22T08:26:12.582Z,59.75
2023-03-22T08:28:40.826Z,59.73
2023-03-22T08:31:15.122Z,59.63
2023-03-22T08:33:45.626Z,59.22
2023-03-22T08:36:16.300Z,58.95
2023-03-22T08:38:51.387Z,59.14
2023-03-22T08:41:24.799Z,58.94
2023-03-22T08:43:52.967Z,58.37
2023-03-22T08:46:20.906Z,58.38
2023-03-22T08:48:50.788Z,57.53
2023-03-22T08:51:28.239Z,57.41
2023-03-22T08:54:16.278Z,57.24
2023-03-22T08:57:03.532Z,56.87
2023-03-22T08:59:41.892Z,56.63
2023-03-22T09:02:37.280Z,56.36
2023-03-22T09:05:06.836Z,55.62
2023-03-22T09:07:34.958Z,55.32
2023-03-22T09:10:11.408Z,54.72
2023-03-22T09:12:43.144Z,54.22
2023-03-22T09:15:12.079Z,54.07
2023-03-22T09:17:43.198Z,53.70
2023-03-22T09:20:13.135Z,53.19
2023-03-22T09:22:44.013Z,52.82
2023-03-22T09:25:16.029Z,52.90
2023-03-22T09:27:47.028Z,52.86
2023-03-22T09:30:16.068Z,52.74
2023-03-22T09:32:44.038Z,53.05
2023-03-22T09:35:14.251Z,52.80
2023-03-22T09:37:54.630Z,52.44
2023-03-22T09:40:27.972Z,52.04
2023-03-22T09:43:00.483Z,51.86
2023-03-22T09:45:38.249Z,51.94
2023-03-22T09:48:09.398Z,51.88
2023-03-22T09:50:44.755Z,51.51
2023-03-22T09:53:16.382Z,51.60
2023-03-22T09:55:51.586Z,51.46
2023-03-22T09:58:26.719Z,51.50
2023-03-22T10:00:59.642Z,51.15
2023-03-22T10:03:56.448Z,50.78
2023-03-22T10:06:28.308Z,50.28
2023-03-22T10:09:05.327Z,50.46
2023-03-22T10:11:45.617Z,50.37
2023-03-22T10:14:31.899Z,50.08
2023-03-22T10:17:03.766Z,50.01
2023-03-22T10:19:36.096Z,49.93
2023-03-22T10:22:06.064Z,49.87
2023-03-22T10:24:36.696Z,50.05
2023-03-22T10:27:15.398Z,50.00
2023-03-22T10:29:47.391Z,49.50
2023-03-22T10:32:17.635Z,49.67
2023-03-22T10:34:46.568Z,49.66
2023-03-22T10:37:17.548Z,48.99
2023-03-22T10:39:49.738Z,49.64
2023-03-22T10:42:22.382Z,49.80
2023-03-22T10:44:54.304Z,49.32
2023-03-22T10:47:30.863Z,49.35
2023-03-22T10:50:03.612Z,49.35
2023-03-22T10:52:42.068Z,48.97
2023-03-22T10:55:12.406Z,48.82
2023-03-22T10:57:43.350Z,48.81
2023-03-22T11:00:17.385Z,48.38
2023-03-22T11:02:52.784Z,48.44
2023-03-22T11:05:24.140Z,47.93
2023-03-22T11:07:52.291Z,47.89
2023-03-22T11:10:23.721Z,47.90
2023-03-22T11:12:55.184Z,48.30
2023-03-22T11:15:32.038Z,47.82
2023-03-22T11:18:02.561Z,47.63
2023-03-22T11:20:31.415Z,47.58
2023-03-22T11:23:02.580Z,47.20
2023-03-22T11:25:32.492Z,47.30
2023-03-22T11:28:16.474Z,47.04
2023-03-22T11:31:00.161Z,47.39
2023-03-22T11:33:28.283Z,47.19
2023-03-22T11:35:58.366Z,47.31
2023-03-22T11:38:30.591Z,47.04
2023-03-22T11:41:02.275Z,46.46
2023-03-22T11:43:37.362Z,46.57
2023-03-22T11:46:06.501Z,46.59
2023-03-22T11:48:36.602Z,46.37
2023-03-22T11:51:12.193Z,45.96
2023-03-22T11:53:42.611Z,45.48
2023-03-22T11:56:16.821Z,45.39
2023-03-22T11:58:55.565Z,45.17
2023-03-22T12:01:33.589Z,45.19
2023-03-22T12:04:04.206Z,44.94
2023-03-22T12:06:35.739Z,44.86
2023-03-22T12:09:07.615Z,44.97
2023-03-22T12:11:40.481Z,45.37
2023-03-22T12:14:17.301Z,45.40
2023-03-22T12:16:49.083Z,45.48
2023-03-22T12:19:27.262Z,45.69
2023-03-22T12:21:56.498Z,46.30
2023-03-22T12:24:28.222Z,46.30
2023-03-22T12:27:01.352Z,46.99
2023-03-22T12:29:32.069Z,47.32
2023-03-22T12:32:03.868Z,47.06
2023-03-22T12:34:40.426Z,47.48
2023-03-22T12:37:12.778Z,47.45
2023-03-22T12:39:46.553Z,47.43
2023-03-22T12:42:22.695Z,47.69
2023-03-22T12:45:04.729Z,47.67
2023-03-22T12:47:41.686Z,47.05
2023-03-22T12:50:15.330Z,47.06
2023-03-22T12:52:47.063Z,47.22
2023-03-22T12:55:24.389Z,47.16
2023-03-22T12:57:54.596Z,46.80
2023-03-22T13:00:28.811Z,46.59
2023-03-22T13:03:02.302Z,46.77
2023-03-22T13:05:33.700Z,46.81
2023-03-22T13:08:04.202Z,46.79
2023-03-22T13:11:06.398Z,46.17
2023-03-22T13:13:42.588Z,46.04
2023-03-22T13:16:24.608Z,45.81
2023-03-22T13:19:02.196Z,45.73
2023-03-22T13:21:33.410Z,45.35
2023-03-22T13:24:24.593Z,44.71
2023-03-22T13:26:54.997Z,44.81
2023-03-22T13:29:25.454Z,44.77
2023-03-22T13:32:01.196Z,44.69
2023-03-22T13:34:38.226Z,44.33
2023-03-22T13:37:10.928Z,44.18
2023-03-22T13:39:41.007Z,43.79
2023-03-22T13:42:18.787Z,43.92
2023-03-22T13:44:53.065Z,43.37
2023-03-22T13:47:34.348Z,43.22
2023-03-22T13:50:07.979Z,43.20
2023-03-22T13:52:40.009Z,43.35
2023-03-22T13:55:36.430Z,43.02
2023-03-22T13:58:06.105Z,42.74
2023-03-22T14:00:38.960Z,42.42
2023-03-22T14:03:16.193Z,42.31
2023-03-22T14:05:49.592Z,42.09
2023-03-22T14:08:22.821Z,42.16
2023-03-22T14:10:57.525Z,41.49
2023-03-22T14:13:32.572Z,41.69
2023-03-22T14:16:07.342Z,41.84
2023-03-22T14:18:41.051Z,41.77
2023-03-22T14:21:13.821Z,41.45
